ePrivacy and GPDR Cookie Consent by Cookie Consent
EmailTwitter


Surface observations / Quebec / CYUL (71627)

Regions: Quebec | Canada | USA | Europe | France | UK | Elsewhere
Station
Display
Info & Location for CYUL (71627) | Help decoding METAR

Weather Conditions observed on 2022/05/18 at 09:00 UTC at MONTREAL INTL A, QB (CYUL)

Sky conditions: few clouds.

Temperature: 7.0 Celsius.

Dewpoint: -2.0 Celsius.

Relative Humidity: 53%

Windchill Factor 4.

Winds: West-northwest at 15 km/h or 8 knots.

Mean Sea level Pressure: 101.25 kilopascals.

Altimeter Setting (QNH): 101.22 kilopascals or 29.89 inches of mercury.

Horizontal visibility: 30.00 statute miles or 48.00 kilometers.

Coded METAR:

CYUL 180900Z 29008KT 30SM FEW180 FEW250 07/M02 A2989 RMK AC1CI1 AC TR CI TR

SLP125=